.
WxDataArchive / Data Records for 2011-12-25
2011-12-24 December 2011 2011-12-26

Data Records for Sunday, 25 December 2011

Time	Temp	Chill	HIndex	Humid	Dewpt	 Wind 	HiWind	WindDir	Rain 	Barom 
-----	----	-----	------	-----	-----	------	------	-------	-----	----- 
00:00	33.1	33.1	33.1	77	26.7	1	4	248	0.00	30.243 
00:05	33.1	33.1	33.1	77	26.7	2	5	270	0.00	30.243 
00:10	33.2	33.2	33.2	77	26.8	2	6	248	0.00	30.243 
00:15	33.2	33.2	33.2	77	26.8	2	4	248	0.00	30.239 
00:20	33.2	33.2	33.2	76	26.5	1	5	248	0.00	30.239 
00:25	33.1	33.1	33.1	77	26.7	1	4	248	0.00	30.239 
00:30	33.1	33.1	33.1	77	26.7	1	4	248	0.00	30.231 
00:35	33.1	33.1	33.1	77	26.7	1	4	248	0.00	30.231 
00:40	32.9	32.9	32.9	77	26.5	1	5	270	0.00	30.231 
00:45	32.9	32.9	32.9	77	26.5	1	4	248	0.00	30.225 
00:50	32.8	32.8	32.8	77	26.4	1	5	248	0.00	30.225 
00:55	32.8	32.8	32.8	77	26.4	1	5	248	0.00	30.225 
01:00	32.8	32.8	32.8	78	26.7	2	6	248	0.00	30.220 
01:05	32.9	32.9	32.9	77	26.5	1	4	248	0.00	30.220 
01:10	32.8	32.8	32.8	77	26.4	1	3	248	0.00	30.220 
01:15	32.8	32.8	32.8	78	26.7	2	5	248	0.00	30.208 
01:20	32.9	32.9	32.9	77	26.5	2	7	248	0.00	30.208 
01:25	32.9	32.9	32.9	77	26.5	2	7	248	0.00	30.208 
01:30	33.1	33.1	33.1	77	26.7	2	6	248	0.00	30.207 
01:35	33.1	33.1	33.1	77	26.7	1	4	248	0.00	30.207 
01:40	33.1	33.1	33.1	77	26.7	2	6	248	0.00	30.207 
01:45	33.1	33.1	33.1	77	26.7	2	5	248	0.00	30.194 
01:50	32.9	32.9	32.9	77	26.5	2	5	270	0.00	30.194 
01:55	32.9	32.9	32.9	77	26.5	2	5	225	0.00	30.194 
02:00	32.9	32.9	32.9	77	26.5	2	5	248	0.00	30.192 
02:05	32.9	32.9	32.9	77	26.5	2	6	248	0.00	30.192 
02:10	32.9	32.9	32.9	77	26.5	1	4	248	0.00	30.192 
02:15	32.9	32.9	32.9	77	26.5	1	4	248	0.00	30.182 
02:20	32.8	32.8	32.8	77	26.4	1	4	225	0.00	30.182 
02:25	32.8	32.8	32.8	77	26.4	1	6	248	0.00	30.182 
02:30	32.8	32.8	32.8	77	26.4	1	3	248	0.00	30.179 
02:35	32.8	32.8	32.8	77	26.4	1	4	248	0.00	30.179 
02:40	32.8	32.8	32.8	77	26.4	2	7	248	0.00	30.179 
02:45	32.9	32.9	32.9	77	26.5	1	5	270	0.00	30.177 
02:50	32.9	32.9	32.9	77	26.5	2	7	248	0.00	30.177 
02:55	33.1	33.1	33.1	77	26.7	1	5	248	0.00	30.177 
03:00	33.1	33.1	33.1	77	26.7	2	5	248	0.00	30.176 
03:05	33.1	33.1	33.1	77	26.7	2	5	248	0.00	30.176 
03:10	33.2	33.2	33.2	77	26.8	2	6	248	0.00	30.176 
03:15	33.2	33.2	33.2	76	26.5	2	9	248	0.00	30.176 
03:20	33.4	33.4	33.4	76	26.7	1	5	248	0.00	30.176 
03:25	33.4	33.4	33.4	76	26.7	2	5	248	0.00	30.176 
03:30	33.4	33.4	33.4	76	26.7	2	5	248	0.00	30.177 
03:35	33.5	33.5	33.5	76	26.8	1	4	248	0.00	30.177 
03:40	33.5	33.5	33.5	76	26.8	2	6	248	0.00	30.177 
03:45	33.5	33.5	33.5	76	26.8	1	5	248	0.00	30.174 
03:50	33.7	33.7	33.7	75	26.6	2	5	248	0.00	30.174 
03:55	33.8	33.8	33.8	75	26.7	2	5	248	0.00	30.174 
04:00	33.8	33.8	33.8	75	26.7	2	6	248	0.00	30.167 
04:05	33.8	33.8	33.8	75	26.7	1	5	248	0.00	30.167 
04:10	33.8	33.8	33.8	75	26.7	1	4	248	0.00	30.167 
04:15	33.8	33.8	33.8	75	26.7	1	3	248	0.00	30.161 
04:20	33.8	33.8	33.8	75	26.7	1	4	248	0.00	30.161 
04:25	33.8	33.8	33.8	76	27.1	1	5	248	0.00	30.161 
04:30	33.7	33.7	33.7	76	27.0	1	4	248	0.00	30.153 
04:35	33.7	33.7	33.7	76	27.0	1	3	248	0.00	30.153 
04:40	33.5	33.5	33.5	76	26.8	1	4	248	0.00	30.153 
04:45	33.5	33.5	33.5	77	27.1	1	4	248	0.00	30.146 
04:50	33.5	33.5	33.5	77	27.1	1	4	248	0.00	30.146 
04:55	33.5	33.5	33.5	77	27.1	1	5	225	0.00	30.146 
05:00	33.7	33.7	33.7	77	27.3	2	5	248	0.00	30.137 
05:05	33.8	33.8	33.8	76	27.1	2	7	248	0.00	30.137 
05:10	33.8	33.8	33.8	76	27.1	2	7	225	0.00	30.137 
05:15	34.0	34.0	34.0	76	27.2	2	4	248	0.00	30.130 
05:20	34.0	34.0	34.0	75	26.9	2	5	225	0.00	30.130 
05:25	34.1	34.1	34.1	75	27.0	2	4	248	0.00	30.130 
05:30	34.1	34.1	34.1	75	27.0	2	6	248	0.00	30.115 
05:35	34.1	34.1	34.1	74	26.7	3	6	248	0.00	30.115 
05:40	34.3	34.3	34.3	74	26.9	2	8	248	0.00	30.115 
05:45	34.3	34.3	34.3	74	26.9	3	8	248	0.00	30.118 
05:50	34.3	34.3	34.3	74	26.9	2	6	248	0.00	30.118 
05:55	34.3	34.3	34.3	74	26.9	2	9	248	0.00	30.118 
06:00	34.3	34.3	34.3	74	26.9	2	5	248	0.00	30.119 
06:05	34.3	34.3	34.3	74	26.9	2	6	248	0.00	30.119 
06:10	34.4	34.4	34.4	74	27.0	3	7	248	0.00	30.119 
06:15	34.4	34.4	34.4	73	26.7	2	7	248	0.00	30.127 
06:20	34.4	34.4	34.4	73	26.7	2	7	248	0.00	30.127 
06:25	34.4	34.4	34.4	73	26.7	2	6	248	0.00	30.127 
06:30	34.4	34.4	34.4	73	26.7	2	6	248	0.00	30.126 
06:35	34.4	34.4	34.4	73	26.7	3	7	248	0.00	30.126 
06:40	34.4	34.4	34.4	74	27.0	2	4	248	0.00	30.126 
06:45	34.4	34.4	34.4	74	27.0	2	6	248	0.00	30.122 
06:50	34.4	34.4	34.4	74	27.0	2	5	248	0.00	30.122 
06:55	34.3	34.3	34.3	74	26.9	2	6	248	0.00	30.122 
07:00	34.3	34.3	34.3	74	26.9	2	6	248	0.00	30.133 
07:05	34.3	34.3	34.3	74	26.9	2	5	248	0.00	30.133 
07:10	34.1	34.1	34.1	74	26.7	2	5	248	0.00	30.133 
07:15	34.1	34.1	34.1	75	27.0	1	5	248	0.00	30.133 
07:20	34.0	34.0	34.0	75	26.9	2	6	248	0.00	30.133 
07:25	33.8	33.8	33.8	75	26.7	2	4	248	0.00	30.133 
07:30	33.8	33.8	33.8	75	26.7	2	7	248	0.00	30.119 
07:35	33.8	33.8	33.8	75	26.7	1	6	248	0.00	30.119 
07:40	33.8	33.8	33.8	76	27.1	1	6	225	0.00	30.119 
07:45	33.8	33.8	33.8	76	27.1	2	6	248	0.00	30.117 
07:50	33.8	33.8	33.8	76	27.1	2	6	248	0.00	30.117 
07:55	34.0	34.0	34.0	76	27.2	1	5	248	0.00	30.117 
08:00	34.0	34.0	34.0	76	27.2	1	4	248	0.00	30.118 
08:05	34.0	34.0	34.0	76	27.2	1	4	248	0.00	30.118 
08:10	33.8	33.8	33.8	76	27.1	2	5	248	0.00	30.118 
08:15	33.8	33.8	33.8	76	27.1	1	4	248	0.00	30.108 
08:20	33.8	33.8	33.8	76	27.1	2	6	248	0.00	30.108 
08:25	33.8	33.8	33.8	76	27.1	2	5	248	0.00	30.108 
08:30	33.8	33.8	33.8	76	27.1	2	7	248	0.00	30.099 
08:35	34.0	34.0	34.0	76	27.2	2	5	248	0.00	30.099 
08:40	34.0	34.0	34.0	76	27.2	2	5	248	0.00	30.099 
08:45	34.1	34.1	34.1	76	27.3	2	8	248	0.00	30.086 
08:50	34.1	34.1	34.1	76	27.3	2	7	248	0.00	30.086 
08:55	34.3	34.3	34.3	75	27.2	3	7	248	0.00	30.086 
09:00	34.3	34.3	34.3	75	27.2	2	9	225	0.00	30.086 
09:05	34.3	34.3	34.3	75	27.2	2	6	248	0.00	30.086 
09:10	34.3	34.3	34.3	75	27.2	3	8	248	0.00	30.086 
09:15	34.4	34.4	34.4	75	27.3	2	6	248	0.00	30.078 
09:20	34.6	34.6	34.6	74	27.2	3	10	225	0.00	30.078 
09:25	34.6	34.6	34.6	74	27.2	2	6	248	0.00	30.078 
09:30	34.6	34.6	34.6	74	27.2	2	5	248	0.00	30.077 
09:35	34.7	34.7	34.7	74	27.3	2	6	248	0.00	30.077 
09:40	35.0	35.0	35.0	73	27.2	2	7	248	0.00	30.077 
09:45	35.3	35.3	35.3	72	27.2	3	8	248	0.00	30.073 
09:50	35.6	35.6	35.6	72	27.5	3	6	248	0.00	30.073 
09:55	35.9	35.9	35.9	71	27.4	3	7	248	0.00	30.073 
10:00	36.2	36.2	36.2	70	27.4	3	10	248	0.00	30.071 
10:05	36.5	33.3	36.5	69	27.3	4	9	248	0.00	30.071 
10:10	36.9	36.9	36.9	69	27.7	3	7	270	0.00	30.071 
10:15	37.2	37.2	37.2	67	27.3	3	6	248	0.00	30.080 
10:20	37.3	34.2	37.3	66	27.0	4	11	270	0.00	30.080 
10:25	37.6	34.5	37.6	66	27.3	4	9	248	0.00	30.080 
10:30	37.9	37.9	37.9	66	27.6	3	7	248	0.00	30.084 
10:35	38.2	35.2	38.2	64	27.1	4	12	248	0.00	30.084 
10:40	38.6	38.6	38.6	64	27.5	3	7	270	0.00	30.084 
10:45	39.1	39.1	39.1	63	27.6	2	7	248	0.00	30.089 
10:50	39.2	36.4	39.2	62	27.3	4	15	248	0.00	30.089 
10:55	39.2	35.5	39.2	61	26.9	5	11	248	0.00	30.089 
11:00	39.3	36.5	39.3	62	27.4	4	7	248	0.00	30.080 
11:05	39.5	36.7	39.5	61	27.2	4	12	270	0.00	30.080 
11:10	39.6	36.9	39.6	62	27.7	4	10	248	0.00	30.080 
11:15	39.6	36.9	39.6	62	27.7	4	10	270	0.00	30.073 
11:20	39.8	37.1	39.8	61	27.5	4	10	248	0.00	30.073 
11:25	39.9	37.2	39.9	60	27.2	4	9	292	0.00	30.073 
11:30	40.1	37.4	40.1	61	27.7	4	10	248	0.00	30.064 
11:35	40.2	40.2	40.2	61	27.8	3	7	270	0.00	30.064 
11:40	40.3	40.3	40.3	61	27.9	3	6	248	0.00	30.064 
11:45	40.6	40.6	40.6	60	27.8	2	5	270	0.00	30.055 
11:50	40.9	38.4	40.9	59	27.7	4	9	270	0.00	30.055 
11:55	41.1	38.6	41.1	58	27.5	4	10	270	0.00	30.055 
12:00	41.2	38.7	41.2	58	27.6	4	9	248	0.00	30.044 
12:05	41.5	41.5	41.5	59	28.3	2	9	248	0.00	30.044 
12:10	41.8	41.8	41.8	58	28.1	3	5	270	0.00	30.044 
12:15	42.2	42.2	42.2	57	28.1	3	6	248	0.00	30.045 
12:20	42.3	42.3	42.3	57	28.2	3	7	270	0.00	30.045 
12:25	42.8	42.8	42.8	57	28.6	3	6	248	0.00	30.045 
12:30	42.9	40.7	42.9	55	27.9	4	7	270	0.00	30.044 
12:35	43.1	43.1	43.1	56	28.5	3	7	270	0.00	30.044 
12:40	42.9	40.7	42.9	56	28.3	4	7	248	0.00	30.044 
12:45	42.5	40.2	42.5	58	28.8	4	10	248	0.00	30.042 
12:50	42.3	40.0	42.3	58	28.6	4	9	248	0.00	30.042 
12:55	42.6	42.6	42.6	58	28.9	3	6	248	0.00	30.042 
13:00	42.8	42.8	42.8	59	29.5	3	6	248	0.00	30.042 
13:05	42.9	42.9	42.9	59	29.6	3	10	248	0.00	30.042 
13:10	43.1	43.1	43.1	59	29.8	3	6	270	0.00	30.042 
13:15	43.3	43.3	43.3	58	29.5	3	6	270	0.00	30.043 
13:20	43.5	40.6	43.5	56	28.9	5	9	270	0.00	30.043 
13:25	43.6	41.5	43.6	57	29.4	4	7	270	0.00	30.043 
13:30	43.6	41.5	43.6	56	29.0	4	9	270	0.00	30.043 
13:35	43.8	41.7	43.8	55	28.7	4	9	270	0.00	30.043 
13:40	44.1	42.1	44.1	55	29.0	4	7	270	0.00	30.043 
13:45	44.2	44.2	44.2	55	29.1	3	8	270	0.00	30.049 
13:50	43.9	41.8	43.9	55	28.8	4	9	270	0.00	30.049 
13:55	43.8	41.7	43.8	56	29.1	4	8	270	0.00	30.049 
14:00	43.6	41.5	43.6	56	29.0	4	9	270	0.00	30.046 
14:05	43.5	40.6	43.5	55	28.4	5	8	270	0.00	30.046 
14:10	43.5	41.4	43.5	56	28.9	4	9	270	0.00	30.046 
14:15	43.8	43.8	43.8	57	29.6	3	6	270	0.00	30.048 
14:20	43.8	41.7	43.8	56	29.1	4	7	270	0.00	30.048 
14:25	43.6	41.5	43.6	56	29.0	4	7	270	0.00	30.048 
14:30	43.3	40.3	43.3	56	28.7	5	10	270	0.00	30.052 
14:35	43.5	41.4	43.5	57	29.3	4	10	270	0.00	30.052 
14:40	43.8	41.7	43.8	57	29.6	4	7	270	0.00	30.052 
14:45	44.1	44.1	44.1	56	29.4	3	9	270	0.00	30.058 
14:50	43.9	43.9	43.9	56	29.2	3	7	270	0.00	30.058 
14:55	43.5	40.6	43.5	55	28.4	5	9	270	0.00	30.058 
15:00	43.1	39.5	43.1	56	28.5	6	11	270	0.00	30.066 
15:05	43.2	43.2	43.2	58	29.4	3	6	270	0.00	30.066 
15:10	43.1	40.1	43.1	57	28.9	5	11	270	0.00	30.066 
15:15	42.5	39.4	42.5	58	28.8	5	9	270	0.00	30.069 
15:20	42.3	40.0	42.3	59	29.0	4	9	270	0.00	30.069 
15:25	42.3	42.3	42.3	59	29.0	3	5	270	0.00	30.069 
15:30	42.9	40.7	42.9	58	29.2	4	9	270	0.00	30.077 
15:35	43.2	40.2	43.2	55	28.1	5	9	270	0.00	30.077 
15:40	42.8	40.6	42.8	55	27.8	4	7	270	0.00	30.077 
15:45	42.3	39.2	42.3	56	27.7	5	13	270	0.00	30.091 
15:50	42.1	39.7	42.1	57	28.0	4	9	315	0.00	30.091 
15:55	41.9	41.9	41.9	58	28.2	3	7	270	0.00	30.091 
16:00	41.8	39.4	41.8	59	28.5	4	9	315	0.00	30.106 
16:05	41.5	39.1	41.5	59	28.3	4	11	292	0.00	30.106 
16:10	41.2	37.9	41.2	59	28.0	5	12	315	0.00	30.106 
16:15	41.1	38.6	41.1	59	27.9	4	9	270	0.00	30.116 
16:20	40.9	38.4	40.9	58	27.3	4	11	292	0.00	30.116 
16:25	40.9	38.4	40.9	58	27.3	4	6	248	0.00	30.116 
16:30	40.8	38.2	40.8	59	27.6	4	13	315	0.00	30.131 
16:35	40.8	38.2	40.8	59	27.6	4	9	270	0.00	30.131 
16:40	40.6	38.0	40.6	60	27.8	4	10	292	0.00	30.131 
16:45	40.5	40.5	40.5	60	27.7	3	7	315	0.00	30.142 
16:50	40.5	40.5	40.5	61	28.1	2	7	315	0.00	30.142 
16:55	40.3	37.7	40.3	60	27.5	4	11	338	0.00	30.142 
17:00	40.3	40.3	40.3	60	27.5	3	12	292	0.00	30.154 
17:05	40.2	37.5	40.2	60	27.4	4	12	338	0.00	30.154 
17:10	40.2	40.2	40.2	60	27.4	3	7	270	0.00	30.154 
17:15	40.2	37.5	40.2	60	27.4	4	7	270	0.00	30.158 
17:20	40.1	40.1	40.1	60	27.3	2	7	270	0.00	30.158 
17:25	39.9	39.9	39.9	60	27.2	1	4	315	0.00	30.158 
17:30	39.6	39.6	39.6	61	27.3	1	4	292	0.00	30.168 
17:35	39.5	39.5	39.5	61	27.2	2	5	315	0.00	30.168 
17:40	39.5	39.5	39.5	62	27.6	1	6	315	0.00	30.168 
17:45	39.5	39.5	39.5	62	27.6	2	6	292	0.00	30.173 
17:50	39.6	39.6	39.6	61	27.3	2	5	315	0.00	30.173 
17:55	39.6	39.6	39.6	62	27.7	2	6	292	0.00	30.173 
18:00	39.6	39.6	39.6	61	27.3	2	4	270	0.00	30.187 
18:05	39.6	39.6	39.6	62	27.7	2	5	315	0.00	30.187 
18:10	39.6	39.6	39.6	62	27.7	2	4	315	0.00	30.187 
18:15	39.6	39.6	39.6	62	27.7	2	5	338	0.00	30.193 
18:20	39.6	39.6	39.6	62	27.7	2	4	270	0.00	30.193 
18:25	39.6	39.6	39.6	62	27.7	2	4	270	0.00	30.193 
18:30	39.6	39.6	39.6	62	27.7	1	3	338	0.00	30.197 
18:35	39.5	39.5	39.5	62	27.6	2	6	248	0.00	30.197 
18:40	39.6	39.6	39.6	62	27.7	2	5	0	0.00	30.197 
18:45	39.6	39.6	39.6	62	27.7	2	5	315	0.00	30.203 
18:50	39.5	39.5	39.5	62	27.6	1	4	270	0.00	30.203 
18:55	39.5	39.5	39.5	62	27.6	1	4	270	0.00	30.203 
19:00	39.3	39.3	39.3	62	27.4	2	5	292	0.00	30.205 
19:05	39.3	39.3	39.3	62	27.4	2	6	315	0.00	30.205 
19:10	39.3	39.3	39.3	62	27.4	2	4	315	0.00	30.205 
19:15	39.3	39.3	39.3	62	27.4	1	4	315	0.00	30.217 
19:20	39.3	39.3	39.3	62	27.4	2	4	270	0.00	30.217 
19:25	39.3	39.3	39.3	61	27.0	1	4	315	0.00	30.217 
19:30	39.3	39.3	39.3	61	27.0	2	5	292	0.00	30.223 
19:35	39.3	39.3	39.3	62	27.4	1	3	0	0.00	30.223 
19:40	39.3	39.3	39.3	62	27.4	1	5	292	0.00	30.223 
19:45	39.2	39.2	39.2	61	26.9	1	3	292	0.00	30.234 
19:50	39.3	39.3	39.3	61	27.0	2	4	315	0.00	30.234 
19:55	39.2	39.2	39.2	62	27.3	1	4	338	0.00	30.234 
20:00	39.2	39.2	39.2	62	27.3	1	3	338	0.00	30.237 
20:05	39.2	39.2	39.2	62	27.3	1	3	338	0.00	30.237 
20:10	39.1	39.1	39.1	62	27.2	1	3	248	0.00	30.237 
20:15	39.1	39.1	39.1	62	27.2	1	3	315	0.00	30.241 
20:20	39.1	39.1	39.1	62	27.2	1	3	315	0.00	30.241 
20:25	39.1	39.1	39.1	62	27.2	1	3	315	0.00	30.241 
20:30	39.1	39.1	39.1	62	27.2	1	3	315	0.00	30.248 
20:35	39.1	39.1	39.1	62	27.2	1	4	315	0.00	30.248 
20:40	39.1	39.1	39.1	62	27.2	1	3	270	0.00	30.248 
20:45	39.1	39.1	39.1	62	27.2	1	3	248	0.00	30.250 
20:50	38.9	38.9	38.9	62	27.0	1	3	248	0.00	30.250 
20:55	38.9	38.9	38.9	62	27.0	0	3	248	0.00	30.250 
21:00	38.9	38.9	38.9	62	27.0	1	2	248	0.00	30.252 
21:05	38.9	38.9	38.9	62	27.0	1	3	292	0.00	30.252 
21:10	38.9	38.9	38.9	62	27.0	1	3	292	0.00	30.252 
21:15	38.9	38.9	38.9	62	27.0	1	3	292	0.00	30.252 
21:20	38.9	38.9	38.9	62	27.0	1	3	292	0.00	30.252 
21:25	38.8	38.8	38.8	62	26.9	2	4	292	0.00	30.252 
21:30	38.8	38.8	38.8	63	27.3	1	2	292	0.00	30.251 
21:35	38.8	38.8	38.8	63	27.3	1	2	292	0.00	30.251 
21:40	38.8	38.8	38.8	63	27.3	0	2	292	0.00	30.251 
21:45	38.8	38.8	38.8	63	27.3	0	3	292	0.00	30.250 
21:50	38.8	38.8	38.8	63	27.3	1	3	315	0.00	30.250 
21:55	38.6	38.6	38.6	63	27.1	1	3	248	0.00	30.250 
22:00	38.6	38.6	38.6	64	27.5	0	2	248	0.00	30.251 
22:05	38.6	38.6	38.6	64	27.5	0	2	248	0.00	30.251 
22:10	38.6	38.6	38.6	64	27.5	1	3	248	0.00	30.251 
22:15	38.6	38.6	38.6	64	27.5	1	2	248	0.00	30.248 
22:20	38.5	38.5	38.5	64	27.4	1	4	248	0.00	30.248 
22:25	38.5	38.5	38.5	65	27.8	1	3	248	0.00	30.248 
22:30	38.5	38.5	38.5	65	27.8	1	3	248	0.00	30.261 
22:35	38.5	38.5	38.5	65	27.8	1	3	248	0.00	30.261 
22:40	38.5	38.5	38.5	65	27.8	0	2	248	0.00	30.261 
22:45	38.5	38.5	38.5	65	27.8	1	2	248	0.00	30.261 
22:50	38.5	38.5	38.5	65	27.8	1	2	248	0.00	30.261 
22:55	38.5	38.5	38.5	66	28.1	0	1	248	0.00	30.261 
23:00	38.5	38.5	38.5	66	28.1	1	2	248	0.00	30.266 
23:05	38.5	38.5	38.5	66	28.1	1	2	248	0.00	30.266 
23:10	38.5	38.5	38.5	66	28.1	0	1	248	0.00	30.266 
23:15	38.5	38.5	38.5	67	28.5	0	1	248	0.00	30.279 
23:20	38.3	38.3	38.3	67	28.3	1	2	248	0.00	30.279 
23:25	38.3	38.3	38.3	68	28.7	0	2	248	0.00	30.279 
23:30	38.3	38.3	38.3	68	28.7	0	2	248	0.00	30.290 
23:35	38.3	38.3	38.3	68	28.7	0	3	248	0.00	30.290 
23:40	38.2	38.2	38.2	68	28.6	0	2	248	0.00	30.290 
23:45	38.2	38.2	38.2	68	28.6	0	2	248	0.00	30.294 
23:50	38.2	38.2	38.2	68	28.6	0	2	248	0.00	30.294 
23:55	38.2	38.2	38.2	68	28.6	0	1	248	0.00	30.294 

CoCoRaHS
IN-AL-39
A2 Web Hosting
Creative Commons License
GoDaddy
search engine by freefind advanced

loaded 2018-11-18 11:45:15 • last modified 2010-11-18 10:43:29
Privacy PolicyDisclaimer
• wx.awcolley.com is powered by PmWiki v.2002016 •
• all content (unless otherwise noted) © 2018 A W Colley